Time,TemperatureF,DewpointF,PressureIn,WindDirection,WindDirectionDegrees,WindSpeedMPH,WindSpeedGustMPH,Humidity,HourlyPrecipIn,Conditions,Clouds,dailyrainin,SoftwareType,DateUTC
2013-01-13 00:05:00,63.7,59.1,30.23,SE,135,0.7,2.2,85,0.00,,,0.00,pywws,2013-01-13 05:05:00,
2013-01-13 00:09:00,63.3,58.7,30.23,South,180,0.0,0.7,85,0.00,,,0.00,pywws,2013-01-13 05:09:00,
2013-01-13 00:14:00,63.0,58.4,30.23,SE,135,0.0,1.6,85,0.00,,,0.00,pywws,2013-01-13 05:14:00,
2013-01-13 00:19:00,62.8,58.5,30.24,SE,135,0.0,1.6,86,0.00,,,0.00,pywws,2013-01-13 05:19:00,
2013-01-13 00:24:00,63.0,59.0,30.24,SE,135,0.0,1.6,87,0.00,,,0.00,pywws,2013-01-13 05:24:00,
2013-01-13 00:35:00,63.0,59.0,30.24,SE,135,0.7,1.6,87,0.00,,,0.00,pywws,2013-01-13 05:35:00,
2013-01-13 00:40:00,62.8,59.2,30.24,SE,135,0.7,1.6,88,0.00,,,0.00,pywws,2013-01-13 05:40:00,
2013-01-13 00:45:00,62.8,59.2,30.25,SW,225,0.7,2.2,88,0.00,,,0.00,pywws,2013-01-13 05:45:00,
2013-01-13 00:50:00,62.8,59.2,30.25,SE,135,0.7,2.2,88,0.00,,,0.00,pywws,2013-01-13 05:50:00,
2013-01-13 00:55:00,62.8,59.2,30.25,SE,135,1.6,2.2,88,0.00,,,0.00,pywws,2013-01-13 05:55:00,
2013-01-13 01:05:00,63.0,59.3,30.25,SE,135,0.7,1.6,88,0.00,,,0.00,pywws,2013-01-13 06:05:00,
2013-01-13 01:10:00,62.8,59.2,30.26,SSW,202,0.0,1.6,88,0.00,,,0.00,pywws,2013-01-13 06:10:00,
2013-01-13 01:15:00,62.6,59.0,30.26,South,180,0.7,2.2,88,0.00,,,0.00,pywws,2013-01-13 06:15:00,
2013-01-13 01:20:00,62.6,59.0,30.26,South,180,0.7,2.2,88,0.00,,,0.00,pywws,2013-01-13 06:20:00,
2013-01-13 01:25:00,62.6,59.0,30.26,SE,135,0.7,2.2,88,0.00,,,0.00,pywws,2013-01-13 06:25:00,
2013-01-13 01:35:00,62.6,58.7,30.26,SE,135,1.6,2.2,87,0.00,,,0.00,pywws,2013-01-13 06:35:00,
2013-01-13 01:40:00,62.8,58.8,30.27,SE,135,1.6,3.8,87,0.00,,,0.00,pywws,2013-01-13 06:40:00,
2013-01-13 01:45:00,63.0,58.7,30.27,SE,135,0.7,3.1,86,0.00,,,0.00,pywws,2013-01-13 06:45:00,
2013-01-13 01:50:00,63.1,58.9,30.27,South,180,0.7,3.1,86,0.00,,,0.00,pywws,2013-01-13 06:50:00,
2013-01-13 01:55:00,63.1,58.6,30.27,East,90,0.7,3.1,85,0.00,,,0.00,pywws,2013-01-13 06:55:00,
2013-01-13 02:05:00,63.3,58.7,30.27,SE,135,0.7,2.2,85,0.00,,,0.00,pywws,2013-01-13 07:05:00,
2013-01-13 02:10:00,63.1,58.6,30.28,East,90,1.6,3.1,85,0.00,,,0.00,pywws,2013-01-13 07:10:00,
2013-01-13 02:15:00,63.1,58.6,30.28,SE,135,0.7,2.2,85,0.00,,,0.00,pywws,2013-01-13 07:15:00,
2013-01-13 02:20:00,63.1,58.6,30.28,East,90,0.0,0.7,85,0.00,,,0.00,pywws,2013-01-13 07:20:00,
2013-01-13 02:25:00,63.1,58.6,30.28,East,90,0.0,0.7,85,0.00,,,0.00,pywws,2013-01-13 07:25:00,
2013-01-13 02:35:00,63.1,58.6,30.28,SE,135,0.7,2.2,85,0.00,,,0.00,pywws,2013-01-13 07:35:00,
2013-01-13 02:40:00,63.1,58.6,30.28,SE,135,0.7,1.6,85,0.00,,,0.00,pywws,2013-01-13 07:40:00,
2013-01-13 02:45:00,63.0,58.4,30.28,SE,135,2.2,3.1,85,0.00,,,0.00,pywws,2013-01-13 07:45:00,
2013-01-13 02:50:00,63.0,58.4,30.29,South,180,0.0,1.6,85,0.00,,,0.00,pywws,2013-01-13 07:50:00,
2013-01-13 02:55:00,62.8,58.2,30.29,South,180,0.0,1.6,85,0.00,,,0.00,pywws,2013-01-13 07:55:00,
2013-01-13 03:05:00,62.6,58.0,30.29,East,90,1.6,2.2,85,0.00,,,0.00,pywws,2013-01-13 08:05:00,
2013-01-13 03:10:00,62.4,58.2,30.29,SE,135,1.6,2.2,86,0.00,,,0.00,pywws,2013-01-13 08:10:00,
2013-01-13 03:15:00,62.4,58.2,30.29,SE,135,0.0,0.7,86,0.00,,,0.00,pywws,2013-01-13 08:15:00,
2013-01-13 03:20:00,62.4,58.2,30.29,NE,45,0.0,0.7,86,0.00,,,0.00,pywws,2013-01-13 08:20:00,
2013-01-13 03:25:00,62.2,58.3,30.29,SE,135,0.7,2.2,87,0.00,,,0.00,pywws,2013-01-13 08:25:00,
2013-01-13 03:35:00,62.4,58.2,30.29,SE,135,0.0,1.6,86,0.00,,,0.00,pywws,2013-01-13 08:35:00,
2013-01-13 03:40:00,62.6,58.7,30.29,South,180,0.7,2.2,87,0.00,,,0.00,pywws,2013-01-13 08:40:00,
2013-01-13 03:45:00,62.4,58.2,30.30,SE,135,0.0,0.7,86,0.00,,,0.00,pywws,2013-01-13 08:45:00,
2013-01-13 03:50:00,62.4,58.2,30.30,South,180,0.0,1.6,86,0.00,,,0.00,pywws,2013-01-13 08:50:00,
2013-01-13 03:55:00,62.4,58.5,30.30,South,180,0.7,1.6,87,0.00,,,0.00,pywws,2013-01-13 08:55:00,
2013-01-13 04:05:00,62.2,58.3,30.30,SE,135,0.0,1.6,87,0.00,,,0.00,pywws,2013-01-13 09:05:00,
2013-01-13 04:10:00,62.1,58.1,30.30,SE,135,0.0,1.6,87,0.00,,,0.00,pywws,2013-01-13 09:10:00,
2013-01-13 04:15:00,61.9,58.0,30.30,East,90,0.0,1.6,87,0.00,,,0.00,pywws,2013-01-13 09:15:00,
2013-01-13 04:20:00,61.9,58.0,30.30,East,90,0.0,1.6,87,0.00,,,0.00,pywws,2013-01-13 09:20:00,
2013-01-13 04:25:00,61.7,58.1,30.31,SE,135,0.0,0.7,88,0.00,,,0.00,pywws,2013-01-13 09:25:00,
2013-01-13 04:35:00,61.7,58.1,30.31,SE,135,0.0,1.6,88,0.00,,,0.00,pywws,2013-01-13 09:35:00,
2013-01-13 04:40:00,61.7,58.4,30.31,SE,135,0.7,2.2,89,0.00,,,0.00,pywws,2013-01-13 09:40:00,
2013-01-13 04:45:00,61.7,58.4,30.31,SE,135,0.7,1.6,89,0.00,,,0.00,pywws,2013-01-13 09:45:00,
2013-01-13 04:50:00,61.5,58.2,30.31,SE,135,1.6,2.2,89,0.00,,,0.00,pywws,2013-01-13 09:50:00,
2013-01-13 04:55:00,61.5,58.2,30.31,SE,135,0.7,2.2,89,0.00,,,0.00,pywws,2013-01-13 09:55:00,
2013-01-13 05:05:00,61.2,57.9,30.32,SE,135,0.0,0.7,89,0.00,,,0.00,pywws,2013-01-13 10:05:00,
2013-01-13 05:10:00,61.2,58.5,30.32,SE,135,0.7,1.6,91,0.00,,,0.00,pywws,2013-01-13 10:10:00,
2013-01-13 05:15:00,61.2,58.5,30.32,SE,135,0.7,2.2,91,0.00,,,0.00,pywws,2013-01-13 10:15:00,
2013-01-13 05:20:00,61.2,58.5,30.32,SE,135,0.7,2.2,91,0.00,,,0.00,pywws,2013-01-13 10:20:00,
2013-01-13 05:25:00,61.3,58.7,30.32,SE,135,1.6,2.2,91,0.00,,,0.00,pywws,2013-01-13 10:25:00,
2013-01-13 05:35:00,61.3,58.7,30.32,SE,135,1.6,3.1,91,0.00,,,0.00,pywws,2013-01-13 10:35:00,
2013-01-13 05:39:00,61.3,58.7,30.33,SE,135,0.0,1.6,91,0.00,,,0.00,pywws,2013-01-13 10:39:00,
2013-01-13 05:44:00,61.3,59.0,30.33,SE,135,1.6,2.2,92,0.00,,,0.00,pywws,2013-01-13 10:44:00,
2013-01-13 05:49:00,61.2,58.5,30.33,SE,135,0.0,1.6,91,0.00,,,0.00,pywws,2013-01-13 10:49:00,
2013-01-13 05:54:00,61.0,58.6,30.33,SE,135,0.7,1.6,92,0.00,,,0.00,pywws,2013-01-13 10:54:00,
2013-01-13 06:05:00,60.8,58.5,30.33,SE,135,0.7,2.2,92,0.00,,,0.00,pywws,2013-01-13 11:05:00,
2013-01-13 06:10:00,60.8,58.8,30.33,South,180,0.0,1.6,93,0.00,,,0.00,pywws,2013-01-13 11:10:00,
2013-01-13 06:15:00,60.8,58.8,30.33,SE,135,0.0,0.7,93,0.00,,,0.00,pywws,2013-01-13 11:15:00,
2013-01-13 06:20:00,60.8,58.8,30.33,SE,135,0.0,1.6,93,0.00,,,0.00,pywws,2013-01-13 11:20:00,
2013-01-13 06:25:00,60.8,58.8,30.33,South,180,0.7,2.2,93,0.00,,,0.00,pywws,2013-01-13 11:25:00,
2013-01-13 06:35:00,60.8,59.1,30.33,SE,135,1.6,2.2,94,0.00,,,0.00,pywws,2013-01-13 11:35:00,
2013-01-13 06:40:00,61.0,59.2,30.34,SE,135,0.7,2.2,94,0.00,,,0.00,pywws,2013-01-13 11:40:00,
2013-01-13 06:45:00,60.8,59.1,30.34,SE,135,0.7,1.6,94,0.00,,,0.00,pywws,2013-01-13 11:45:00,
2013-01-13 06:50:00,60.8,59.1,30.34,SE,135,0.7,2.2,94,0.00,,,0.00,pywws,2013-01-13 11:50:00,
2013-01-13 06:55:00,60.6,58.9,30.34,SE,135,0.7,1.6,94,0.00,,,0.00,pywws,2013-01-13 11:55:00,
2013-01-13 07:05:00,60.6,58.9,30.34,SE,135,0.7,2.2,94,0.00,,,0.00,pywws,2013-01-13 12:05:00,
2013-01-13 07:10:00,60.6,59.2,30.34,SE,135,0.7,1.6,95,0.00,,,0.00,pywws,2013-01-13 12:10:00,
2013-01-13 07:15:00,60.6,59.2,30.34,SE,135,0.7,1.6,95,0.00,,,0.00,pywws,2013-01-13 12:15:00,
2013-01-13 07:20:00,60.6,59.2,30.34,SE,135,0.7,1.6,95,0.00,,,0.00,pywws,2013-01-13 12:20:00,
2013-01-13 07:25:00,60.6,59.2,30.34,SE,135,0.0,1.6,95,0.00,,,0.00,pywws,2013-01-13 12:25:00,
2013-01-13 07:35:00,60.4,59.0,30.34,SE,135,0.0,0.7,95,0.00,,,0.00,pywws,2013-01-13 12:35:00,
2013-01-13 07:40:00,60.3,58.8,30.34,SE,135,0.0,1.6,95,0.00,,,0.00,pywws,2013-01-13 12:40:00,
2013-01-13 07:45:00,60.3,58.8,30.34,SE,135,0.0,0.7,95,0.00,,,0.00,pywws,2013-01-13 12:45:00,
2013-01-13 07:50:00,60.4,59.3,30.34,SE,135,0.0,1.6,96,0.00,,,0.00,pywws,2013-01-13 12:50:00,
2013-01-13 07:55:00,60.4,59.3,30.34,SE,135,0.7,1.6,96,0.00,,,0.00,pywws,2013-01-13 12:55:00,
2013-01-13 08:05:00,60.6,59.5,30.34,SE,135,0.0,1.6,96,0.00,,,0.00,pywws,2013-01-13 13:05:00,
2013-01-13 08:10:00,60.8,59.7,30.34,SE,135,0.7,1.6,96,0.00,,,0.00,pywws,2013-01-13 13:10:00,
2013-01-13 08:15:00,61.0,59.8,30.34,SE,135,0.7,2.2,96,0.00,,,0.00,pywws,2013-01-13 13:15:00,
2013-01-13 08:20:00,61.2,60.0,30.33,ESE,112,0.7,2.2,96,0.00,,,0.00,pywws,2013-01-13 13:20:00,
2013-01-13 08:25:00,61.5,60.1,30.33,SE,135,0.7,1.6,95,0.00,,,0.00,pywws,2013-01-13 13:25:00,
2013-01-13 08:35:00,61.5,60.1,30.33,SE,135,0.7,3.1,95,0.00,,,0.00,pywws,2013-01-13 13:35:00,
2013-01-13 08:40:00,61.7,60.3,30.33,SE,135,1.6,3.1,95,0.00,,,0.00,pywws,2013-01-13 13:40:00,
2013-01-13 08:45:00,61.7,60.3,30.33,East,90,0.7,2.2,95,0.00,,,0.00,pywws,2013-01-13 13:45:00,
2013-01-13 08:50:00,61.9,60.4,30.33,SE,135,0.7,2.2,95,0.00,,,0.00,pywws,2013-01-13 13:50:00,
2013-01-13 08:55:00,61.9,60.1,30.33,SE,135,1.6,3.1,94,0.00,,,0.00,pywws,2013-01-13 13:55:00,
2013-01-13 09:05:00,62.1,60.3,30.33,SSE,158,0.7,2.2,94,0.00,,,0.00,pywws,2013-01-13 14:05:00,
2013-01-13 09:10:00,62.2,60.5,30.33,SE,135,1.6,3.1,94,0.00,,,0.00,pywws,2013-01-13 14:10:00,
2013-01-13 09:15:00,62.4,60.7,30.33,SE,135,0.0,1.6,94,0.00,,,0.00,pywws,2013-01-13 14:15:00,
2013-01-13 09:20:00,62.4,60.7,30.32,SE,135,2.2,3.1,94,0.00,,,0.00,pywws,2013-01-13 14:20:00,
2013-01-13 09:25:00,62.6,60.8,30.32,South,180,0.0,1.6,94,0.00,,,0.00,pywws,2013-01-13 14:25:00,
2013-01-13 09:35:00,62.6,60.5,30.32,SE,135,1.6,2.2,93,0.00,,,0.00,pywws,2013-01-13 14:35:00,
2013-01-13 09:40:00,62.8,60.7,30.32,South,180,0.7,2.2,93,0.00,,,0.00,pywws,2013-01-13 14:40:00,
2013-01-13 09:45:00,63.3,61.3,30.32,SE,135,0.7,1.6,93,0.00,,,0.00,pywws,2013-01-13 14:45:00,
2013-01-13 09:50:00,64.4,62.0,30.32,South,180,0.7,2.2,92,0.00,,,0.00,pywws,2013-01-13 14:50:00,
2013-01-13 09:55:00,65.7,62.6,30.32,SE,135,0.7,3.8,90,0.00,,,0.00,pywws,2013-01-13 14:55:00,
2013-01-13 10:05:00,66.7,63.1,30.32,South,180,0.7,2.2,88,0.00,,,0.00,pywws,2013-01-13 15:05:00,
2013-01-13 10:10:00,68.5,63.2,30.32,SE,135,1.6,2.2,83,0.00,,,0.00,pywws,2013-01-13 15:10:00,
2013-01-13 10:15:00,68.9,63.5,30.32,SW,225,0.7,2.2,83,0.00,,,0.00,pywws,2013-01-13 15:15:00,
2013-01-13 10:20:00,69.3,62.8,30.32,SE,135,0.7,2.2,80,0.00,,,0.00,pywws,2013-01-13 15:20:00,
2013-01-13 10:25:00,69.4,63.0,30.32,South,180,1.6,3.1,80,0.00,,,0.00,pywws,2013-01-13 15:25:00,
2013-01-13 10:35:00,69.1,62.3,30.31,South,180,3.1,6.9,79,0.00,,,0.00,pywws,2013-01-13 15:35:00,
2013-01-13 10:40:00,69.3,62.5,30.31,SW,225,3.1,6.0,79,0.00,,,0.00,pywws,2013-01-13 15:40:00,
2013-01-13 10:45:00,68.9,62.1,30.31,West,270,3.8,6.9,79,0.00,,,0.00,pywws,2013-01-13 15:45:00,
2013-01-13 10:50:00,69.1,62.3,30.30,NW,315,3.1,4.5,79,0.00,,,0.00,pywws,2013-01-13 15:50:00,
2013-01-13 10:55:00,69.4,61.9,30.30,SSW,202,3.1,5.4,77,0.00,,,0.00,pywws,2013-01-13 15:55:00,
2013-01-13 11:05:00,70.2,61.9,30.30,West,270,3.8,6.0,75,0.00,,,0.00,pywws,2013-01-13 16:05:00,
2013-01-13 11:10:00,72.0,62.4,30.29,NE,45,0.7,2.2,72,0.00,,,0.00,pywws,2013-01-13 16:10:00,
2013-01-13 11:15:00,71.6,61.3,30.29,NW,315,4.5,7.6,70,0.00,,,0.00,pywws,2013-01-13 16:15:00,
2013-01-13 11:20:00,71.1,61.2,30.29,SE,135,3.1,4.5,71,0.00,,,0.00,pywws,2013-01-13 16:20:00,
2013-01-13 11:25:00,71.6,61.7,30.28,SW,225,3.1,6.0,71,0.00,,,0.00,pywws,2013-01-13 16:25:00,
2013-01-13 11:35:00,72.0,61.6,30.28,SW,225,3.1,6.9,70,0.00,,,0.00,pywws,2013-01-13 16:35:00,
2013-01-13 11:40:00,72.5,61.3,30.27,SE,135,2.2,6.0,68,0.00,,,0.00,pywws,2013-01-13 16:40:00,
2013-01-13 11:45:00,72.7,61.5,30.27,West,270,3.8,6.0,68,0.00,,,0.00,pywws,2013-01-13 16:45:00,
2013-01-13 11:50:00,72.7,61.9,30.27,West,270,3.1,6.0,69,0.00,,,0.00,pywws,2013-01-13 16:50:00,
2013-01-13 11:55:00,72.9,61.7,30.27,East,90,3.1,6.0,68,0.00,,,0.00,pywws,2013-01-13 16:55:00,
2013-01-13 12:05:00,73.2,62.0,30.26,West,270,2.2,3.8,68,0.00,,,0.00,pywws,2013-01-13 17:05:00,
2013-01-13 12:09:00,73.9,62.3,30.26,ENE,68,3.8,6.0,67,0.00,,,0.00,pywws,2013-01-13 17:09:00,
2013-01-13 12:14:00,74.1,62.0,30.25,West,270,4.5,8.3,66,0.00,,,0.00,pywws,2013-01-13 17:14:00,
2013-01-13 12:19:00,73.9,61.8,30.25,SW,225,2.2,3.8,66,0.00,,,0.00,pywws,2013-01-13 17:19:00,
2013-01-13 12:24:00,73.8,62.1,30.25,SE,135,1.6,3.8,67,0.00,,,0.00,pywws,2013-01-13 17:24:00,
2013-01-13 12:35:00,73.8,62.1,30.25,North,0,2.2,4.5,67,0.00,,,0.00,pywws,2013-01-13 17:35:00,
2013-01-13 12:40:00,73.6,61.9,30.24,ENE,68,3.1,6.0,67,0.00,,,0.00,pywws,2013-01-13 17:40:00,
2013-01-13 12:45:00,73.6,61.9,30.24,West,270,2.2,4.5,67,0.00,,,0.00,pywws,2013-01-13 17:45:00,
2013-01-13 12:50:00,73.8,61.7,30.24,WSW,248,3.8,6.9,66,0.00,,,0.00,pywws,2013-01-13 17:50:00,
2013-01-13 12:55:00,73.8,62.1,30.24,SE,135,3.1,4.5,67,0.00,,,0.00,pywws,2013-01-13 17:55:00,
2013-01-13 13:05:00,74.1,62.0,30.23,SE,135,0.7,3.1,66,0.00,,,0.00,pywws,2013-01-13 18:05:00,
2013-01-13 13:09:00,74.3,61.8,30.23,West,270,7.6,12.1,65,0.00,,,0.00,pywws,2013-01-13 18:09:00,
2013-01-13 13:14:00,74.3,61.8,30.22,East,90,2.2,4.5,65,0.00,,,0.00,pywws,2013-01-13 18:14:00,
2013-01-13 13:19:00,74.8,61.8,30.22,SE,135,3.1,6.9,64,0.00,,,0.00,pywws,2013-01-13 18:19:00,
2013-01-13 13:24:00,75.4,61.9,30.22,SSE,158,3.8,6.0,63,0.00,,,0.00,pywws,2013-01-13 18:24:00,
2013-01-13 13:35:00,75.4,61.9,30.22,SE,135,2.2,4.5,63,0.00,,,0.00,pywws,2013-01-13 18:35:00,
2013-01-13 13:40:00,76.6,62.6,30.21,WSW,248,3.8,6.9,62,0.00,,,0.00,pywws,2013-01-13 18:40:00,
2013-01-13 13:45:00,75.7,62.2,30.21,West,270,0.7,3.1,63,0.00,,,0.00,pywws,2013-01-13 18:45:00,
2013-01-13 13:50:00,76.1,62.6,30.21,South,180,0.7,2.2,63,0.00,,,0.00,pywws,2013-01-13 18:50:00,
2013-01-13 13:55:00,76.5,62.5,30.20,SW,225,2.2,4.5,62,0.00,,,0.00,pywws,2013-01-13 18:55:00,
2013-01-13 14:05:00,76.6,62.2,30.20,WSW,248,2.2,5.4,61,0.00,,,0.00,pywws,2013-01-13 19:05:00,
2013-01-13 14:10:00,76.5,61.5,30.19,SE,135,1.6,3.1,60,0.00,,,0.00,pywws,2013-01-13 19:10:00,
2013-01-13 14:15:00,76.6,61.7,30.19,East,90,2.2,4.5,60,0.00,,,0.00,pywws,2013-01-13 19:15:00,
2013-01-13 14:20:00,77.7,62.2,30.19,South,180,3.1,6.9,59,0.00,,,0.00,pywws,2013-01-13 19:20:00,
2013-01-13 14:25:00,77.4,61.9,30.19,ENE,68,2.2,4.5,59,0.00,,,0.00,pywws,2013-01-13 19:25:00,
2013-01-13 14:35:00,77.2,62.2,30.19,SW,225,0.7,3.1,60,0.00,,,0.00,pywws,2013-01-13 19:35:00,
2013-01-13 14:40:00,78.8,62.8,30.18,SSW,202,0.0,0.7,58,0.00,,,0.00,pywws,2013-01-13 19:40:00,
2013-01-13 14:45:00,79.2,61.6,30.18,ESE,112,1.6,3.1,55,0.00,,,0.00,pywws,2013-01-13 19:45:00,
2013-01-13 14:50:00,77.9,60.9,30.17,South,180,2.2,3.1,56,0.00,,,0.00,pywws,2013-01-13 19:50:00,
2013-01-13 14:55:00,77.4,61.4,30.17,SE,135,2.2,6.0,58,0.00,,,0.00,pywws,2013-01-13 19:55:00,
2013-01-13 15:05:00,77.2,61.2,30.17,West,270,3.8,5.4,58,0.00,,,0.00,pywws,2013-01-13 20:05:00,
2013-01-13 15:09:00,77.0,61.1,30.16,North,0,3.8,5.4,58,0.00,,,0.00,pywws,2013-01-13 20:09:00,
2013-01-13 15:14:00,77.0,62.0,30.16,South,180,1.6,2.2,60,0.00,,,0.00,pywws,2013-01-13 20:14:00,
2013-01-13 15:19:00,77.4,61.4,30.16,SW,225,1.6,3.8,58,0.00,,,0.00,pywws,2013-01-13 20:19:00,
2013-01-13 15:24:00,77.2,61.2,30.16,West,270,1.6,3.8,58,0.00,,,0.00,pywws,2013-01-13 20:24:00,
2013-01-13 15:35:00,77.2,61.2,30.16,South,180,1.6,3.8,58,0.00,,,0.00,pywws,2013-01-13 20:35:00,
2013-01-13 15:40:00,77.2,61.7,30.16,West,270,1.6,2.2,59,0.00,,,0.00,pywws,2013-01-13 20:40:00,
2013-01-13 15:50:00,76.8,61.9,30.15,SW,225,0.0,0.7,60,0.00,,,0.00,pywws,2013-01-13 20:50:00,
2013-01-13 15:55:00,76.6,61.7,30.15,NW,315,2.2,4.5,60,0.00,,,0.00,pywws,2013-01-13 20:55:00,
2013-01-13 16:05:00,76.5,61.5,30.15,East,90,0.0,1.6,60,0.00,,,0.00,pywws,2013-01-13 21:05:00,
2013-01-13 16:09:00,76.1,61.7,30.15,South,180,0.7,2.2,61,0.00,,,0.00,pywws,2013-01-13 21:09:00,
2013-01-13 16:14:00,75.9,61.5,30.15,South,180,1.6,3.1,61,0.00,,,0.00,pywws,2013-01-13 21:14:00,
2013-01-13 16:19:00,75.9,61.5,30.15,East,90,2.2,4.5,61,0.00,,,0.00,pywws,2013-01-13 21:19:00,
2013-01-13 16:24:00,75.7,61.3,30.15,SW,225,1.6,3.1,61,0.00,,,0.00,pywws,2013-01-13 21:24:00,
2013-01-13 16:35:00,75.7,61.3,30.15,South,180,1.6,2.2,61,0.00,,,0.00,pywws,2013-01-13 21:35:00,
2013-01-13 16:40:00,76.1,61.7,30.15,SE,135,1.6,3.1,61,0.00,,,0.00,pywws,2013-01-13 21:40:00,
2013-01-13 16:45:00,75.9,61.5,30.15,SE,135,1.6,2.2,61,0.00,,,0.00,pywws,2013-01-13 21:45:00,
2013-01-13 16:50:00,75.9,61.5,30.15,South,180,0.7,2.2,61,0.00,,,0.00,pywws,2013-01-13 21:50:00,
2013-01-13 16:55:00,75.7,61.3,30.15,SE,135,1.6,3.1,61,0.00,,,0.00,pywws,2013-01-13 21:55:00,
2013-01-13 17:05:00,75.4,61.4,30.15,South,180,0.7,1.6,62,0.00,,,0.00,pywws,2013-01-13 22:05:00,
2013-01-13 17:10:00,74.8,61.4,30.14,SE,135,2.2,3.8,63,0.00,,,0.00,pywws,2013-01-13 22:10:00,
2013-01-13 17:15:00,74.5,61.5,30.14,SE,135,0.7,1.6,64,0.00,,,0.00,pywws,2013-01-13 22:15:00,
2013-01-13 17:20:00,74.1,61.1,30.14,SE,135,1.6,2.2,64,0.00,,,0.00,pywws,2013-01-13 22:20:00,
2013-01-13 17:25:00,73.8,61.2,30.14,SE,135,0.7,2.2,65,0.00,,,0.00,pywws,2013-01-13 22:25:00,
2013-01-13 17:35:00,73.4,60.9,30.14,SE,135,0.7,2.2,65,0.00,,,0.00,pywws,2013-01-13 22:35:00,
2013-01-13 17:39:00,72.7,61.1,30.14,SE,135,0.7,1.6,67,0.00,,,0.00,pywws,2013-01-13 22:39:00,
2013-01-13 17:44:00,72.1,61.0,30.14,SE,135,0.7,0.7,68,0.00,,,0.00,pywws,2013-01-13 22:44:00,
2013-01-13 17:49:00,71.8,61.1,30.14,SE,135,0.7,1.6,69,0.00,,,0.00,pywws,2013-01-13 22:49:00,
2013-01-13 17:54:00,71.2,60.5,30.14,SE,135,0.0,0.7,69,0.00,,,0.00,pywws,2013-01-13 22:54:00,
2013-01-13 18:09:00,70.2,61.1,30.15,SE,135,0.0,1.6,73,0.00,,,0.00,pywws,2013-01-13 23:09:00,
2013-01-13 18:14:00,70.2,61.1,30.15,SE,135,0.7,2.2,73,0.00,,,0.00,pywws,2013-01-13 23:14:00,
2013-01-13 18:19:00,70.2,61.1,30.15,SE,135,0.7,1.6,73,0.00,,,0.00,pywws,2013-01-13 23:19:00,
2013-01-13 18:24:00,69.8,61.1,30.15,SE,135,0.7,1.6,74,0.00,,,0.00,pywws,2013-01-13 23:24:00,
2013-01-13 18:35:00,69.6,61.0,30.15,SE,135,0.7,1.6,74,0.00,,,0.00,pywws,2013-01-13 23:35:00,
2013-01-13 18:40:00,69.4,61.2,30.15,SE,135,0.0,0.0,75,0.00,,,0.00,pywws,2013-01-13 23:40:00,
2013-01-13 18:45:00,69.1,60.8,30.15,SE,135,0.0,0.0,75,0.00,,,0.00,pywws,2013-01-13 23:45:00,
2013-01-13 18:50:00,68.9,61.0,30.15,SE,135,0.7,2.2,76,0.00,,,0.00,pywws,2013-01-13 23:50:00,
2013-01-13 18:55:00,68.9,61.4,30.15,SE,135,1.6,3.1,77,0.00,,,0.00,pywws,2013-01-13 23:55:00,
2013-01-13 19:05:00,68.9,61.4,30.15,SE,135,0.7,2.2,77,0.00,,,0.00,pywws,2013-01-14 00:05:00,
2013-01-13 19:10:00,69.1,61.6,30.16,SE,135,0.7,2.2,77,0.00,,,0.00,pywws,2013-01-14 00:10:00,
2013-01-13 19:15:00,69.1,61.2,30.16,SE,135,0.7,2.2,76,0.00,,,0.00,pywws,2013-01-14 00:15:00,
2013-01-13 19:20:00,69.3,61.4,30.16,SE,135,0.7,2.2,76,0.00,,,0.00,pywws,2013-01-14 00:20:00,
2013-01-13 19:25:00,68.7,61.2,30.16,SE,135,0.7,1.6,77,0.00,,,0.00,pywws,2013-01-14 00:25:00,
2013-01-13 19:36:00,68.5,61.0,30.16,SE,135,0.7,2.2,77,0.00,,,0.00,pywws,2013-01-14 00:36:00,
2013-01-13 19:40:00,68.2,61.1,30.16,SE,135,1.6,2.2,78,0.00,,,0.00,pywws,2013-01-14 00:40:00,
2013-01-13 19:45:00,68.4,61.2,30.16,SE,135,0.7,2.2,78,0.00,,,0.00,pywws,2013-01-14 00:45:00,
2013-01-13 19:51:00,68.2,61.1,30.16,SE,135,0.7,2.2,78,0.00,,,0.00,pywws,2013-01-14 00:51:00,
2013-01-13 20:02:00,68.4,61.2,30.16,SE,135,1.6,2.2,78,0.00,,,0.00,pywws,2013-01-14 01:02:00,
2013-01-13 20:07:00,68.5,61.4,30.16,SE,135,1.6,3.1,78,0.00,,,0.00,pywws,2013-01-14 01:07:00,
2013-01-13 20:12:00,68.5,61.0,30.16,SE,135,0.0,0.7,77,0.00,,,0.00,pywws,2013-01-14 01:12:00,
2013-01-13 20:17:00,68.2,61.1,30.16,SE,135,0.0,1.6,78,0.00,,,0.00,pywws,2013-01-14 01:17:00,
2013-01-13 20:22:00,68.2,61.1,30.16,South,180,0.0,1.6,78,0.00,,,0.00,pywws,2013-01-14 01:22:00,
2013-01-13 20:32:00,68.0,61.2,30.17,South,180,0.0,1.6,79,0.00,,,0.00,pywws,2013-01-14 01:32:00,
2013-01-13 20:37:00,68.2,61.4,30.17,SE,135,0.7,2.2,79,0.00,,,0.00,pywws,2013-01-14 01:37:00,
2013-01-13 20:42:00,68.4,61.6,30.17,SE,135,1.6,2.2,79,0.00,,,0.00,pywws,2013-01-14 01:42:00,
2013-01-13 20:47:00,68.4,61.2,30.17,SE,135,0.7,1.6,78,0.00,,,0.00,pywws,2013-01-14 01:47:00,
2013-01-13 20:52:00,68.4,61.2,30.17,SE,135,0.7,3.1,78,0.00,,,0.00,pywws,2013-01-14 01:52:00,
2013-01-13 21:02:00,68.4,61.2,30.17,SE,135,2.2,4.5,78,0.00,,,0.00,pywws,2013-01-14 02:02:00,
2013-01-13 21:07:00,68.4,61.2,30.17,SE,135,1.6,3.1,78,0.00,,,0.00,pywws,2013-01-14 02:07:00,
2013-01-13 21:12:00,68.4,61.2,30.18,SSE,158,3.1,4.5,78,0.00,,,0.00,pywws,2013-01-14 02:12:00,
2013-01-13 21:17:00,68.4,61.2,30.18,SE,135,1.6,2.2,78,0.00,,,0.00,pywws,2013-01-14 02:17:00,
2013-01-13 21:22:00,68.2,61.4,30.18,SE,135,2.2,3.1,79,0.00,,,0.00,pywws,2013-01-14 02:22:00,
2013-01-13 21:32:00,68.0,61.2,30.18,SSE,158,1.6,3.1,79,0.00,,,0.00,pywws,2013-01-14 02:32:00,
2013-01-13 21:37:00,67.8,61.4,30.18,SE,135,0.7,2.2,80,0.00,,,0.00,pywws,2013-01-14 02:37:00,
2013-01-13 21:42:00,67.6,61.2,30.18,SE,135,1.6,3.8,80,0.00,,,0.00,pywws,2013-01-14 02:42:00,
2013-01-13 21:47:00,67.6,61.2,30.18,SE,135,0.7,2.2,80,0.00,,,0.00,pywws,2013-01-14 02:47:00,
2013-01-13 21:52:00,67.5,61.1,30.18,SE,135,1.6,3.8,80,0.00,,,0.00,pywws,2013-01-14 02:52:00,
2013-01-13 22:02:00,67.5,61.1,30.19,SE,135,1.6,3.8,80,0.00,,,0.00,pywws,2013-01-14 03:02:00,
2013-01-13 22:07:00,67.3,61.2,30.19,SE,135,1.6,2.2,81,0.00,,,0.00,pywws,2013-01-14 03:07:00,
2013-01-13 22:12:00,67.1,61.1,30.19,SE,135,2.2,3.8,81,0.00,,,0.00,pywws,2013-01-14 03:12:00,
2013-01-13 22:17:00,67.1,61.1,30.19,East,90,3.1,4.5,81,0.00,,,0.00,pywws,2013-01-14 03:17:00,
2013-01-13 22:22:00,66.9,61.2,30.19,SE,135,1.6,3.1,82,0.00,,,0.00,pywws,2013-01-14 03:22:00,
2013-01-13 22:32:00,66.7,61.1,30.19,SSE,158,1.6,2.2,82,0.00,,,0.00,pywws,2013-01-14 03:32:00,
2013-01-13 22:37:00,66.6,60.9,30.20,SE,135,2.2,3.8,82,0.00,,,0.00,pywws,2013-01-14 03:37:00,
2013-01-13 22:42:00,66.6,60.9,30.20,SE,135,3.1,5.4,82,0.00,,,0.00,pywws,2013-01-14 03:42:00,
2013-01-13 22:47:00,66.6,61.2,30.21,SE,135,4.5,6.9,83,0.00,,,0.00,pywws,2013-01-14 03:47:00,
2013-01-13 22:52:00,66.6,60.9,30.21,SE,135,5.4,9.2,82,0.00,,,0.00,pywws,2013-01-14 03:52:00,
2013-01-13 23:02:00,66.6,60.9,30.21,SSE,158,3.8,7.6,82,0.00,,,0.00,pywws,2013-01-14 04:02:00,
2013-01-13 23:06:00,66.6,60.9,30.22,SE,135,3.1,6.0,82,0.00,,,0.00,pywws,2013-01-14 04:06:00,
2013-01-13 23:11:00,66.7,60.7,30.22,SSE,158,2.2,3.8,81,0.00,,,0.00,pywws,2013-01-14 04:11:00,
2013-01-13 23:16:00,66.6,60.5,30.22,SSE,158,3.8,6.0,81,0.00,,,0.00,pywws,2013-01-14 04:16:00,
2013-01-13 23:21:00,66.9,60.5,30.22,SE,135,2.2,3.8,80,0.00,,,0.00,pywws,2013-01-14 04:21:00,
2013-01-13 23:32:00,66.9,60.5,30.22,SE,135,3.1,5.4,80,0.00,,,0.00,pywws,2013-01-14 04:32:00,
2013-01-13 23:37:00,66.9,60.2,30.23,South,180,3.1,5.4,79,0.00,,,0.00,pywws,2013-01-14 04:37:00,
2013-01-13 23:42:00,66.7,60.0,30.23,South,180,3.1,4.5,79,0.00,,,0.00,pywws,2013-01-14 04:42:00,
2013-01-13 23:47:00,66.7,60.0,30.23,South,180,3.1,6.0,79,0.00,,,0.00,pywws,2013-01-14 04:47:00,
2013-01-13 23:52:00,66.6,59.8,30.23,South,180,2.2,4.5,79,0.00,,,0.00,pywws,2013-01-14 04:52:00,